Clermont, Florida
Current Conditions -  °F | °C
As of 8:53 AM on Saturday 25 Oct 2014 (Local Time) from KLEE Reporting Station
Clear Clear  
Wind Chill: 65°   Ceiling: Unl
Heat Index: 65°   Visibility: 10mi
Dew Point: 53°   Wind: 5mph
Humidity: 65%   Direction: 350°N
Pressure: 30.01"   Gusts: NA
Location:  28.55°N, 81.77°W
Report Text: KLEE 251253Z 35004KT 10SM CLR 18/12 A3001 RMK AO2 SLP161 T01830117
Loading
Personal Weather Stations






























Interactive Weather Map
Tropical Storm Tracking
New forecast layout! Learn more

10-Day Weather Forecast

Advertisements
Track Severe Weather on mobile